createdAt,value
2023-12-09T00:00:35.926Z,12.77
2023-12-09T00:05:39.584Z,11.63
2023-12-09T00:10:43.194Z,13.03
2023-12-09T00:15:46.951Z,14.97
2023-12-09T00:20:51.125Z,13.63
2023-12-09T00:25:54.660Z,11.93
2023-12-09T00:30:58.125Z,13.80
2023-12-09T00:36:01.633Z,10.40
2023-12-09T00:41:05.961Z,12.50
2023-12-09T00:46:09.397Z,12.97
2023-12-09T00:51:14.030Z,11.07
2023-12-09T00:56:33.054Z,13.57
2023-12-09T01:01:38.812Z,10.70
2023-12-09T01:06:42.322Z,13.73
2023-12-09T01:11:46.961Z,15.00
2023-12-09T01:16:50.550Z,12.23
2023-12-09T01:21:54.174Z,11.57
2023-12-09T01:26:57.598Z,12.10
2023-12-09T01:32:01.074Z,10.93
2023-12-09T01:37:05.243Z,10.90
2023-12-09T01:42:10.801Z,12.17
2023-12-09T01:47:14.580Z,11.00
2023-12-09T01:52:19.557Z,11.03
2023-12-09T01:57:23.359Z,10.20
2023-12-09T02:02:26.977Z,10.73
2023-12-09T02:07:30.632Z,10.63
2023-12-09T02:12:47.083Z,10.37
2023-12-09T02:18:06.941Z,10.53
2023-12-09T02:23:28.038Z,9.50
2023-12-09T02:28:33.173Z,10.13
2023-12-09T02:33:37.938Z,10.97
2023-12-09T02:38:42.803Z,11.23
2023-12-09T02:43:47.905Z,11.63
2023-12-09T02:48:51.567Z,11.73
2023-12-09T02:53:55.930Z,8.20
2023-12-09T02:58:59.486Z,9.90
2023-12-09T03:04:03.215Z,10.87
2023-12-09T03:09:06.716Z,9.33
2023-12-09T03:14:10.157Z,9.53
2023-12-09T03:19:13.700Z,8.67
2023-12-09T03:24:17.678Z,10.63
2023-12-09T03:29:21.961Z,9.10
2023-12-09T03:34:25.487Z,10.67
2023-12-09T03:39:29.052Z,10.37
2023-12-09T03:44:32.687Z,10.57
2023-12-09T03:49:36.226Z,9.67
2023-12-09T03:54:40.329Z,11.37
2023-12-09T03:59:43.598Z,11.20
2023-12-09T04:04:46.861Z,10.00
2023-12-09T04:09:51.550Z,8.30
2023-12-09T04:14:55.848Z,10.97
2023-12-09T04:19:59.405Z,10.50
2023-12-09T04:25:06.267Z,8.93
2023-12-09T04:30:10.941Z,11.50
2023-12-09T04:35:15.004Z,11.50
2023-12-09T04:40:19.093Z,11.13
2023-12-09T04:45:23.861Z,8.83
2023-12-09T04:50:27.402Z,10.97
2023-12-09T04:55:30.913Z,11.70
2023-12-09T05:00:34.582Z,11.67
2023-12-09T05:05:38.043Z,13.20
2023-12-09T05:10:41.589Z,13.20
2023-12-09T05:15:45.574Z,13.03
2023-12-09T05:20:49.061Z,11.57
2023-12-09T05:25:53.183Z,11.23
2023-12-09T05:30:57.438Z,11.63
2023-12-09T05:36:01.374Z,9.63
2023-12-09T05:41:06.533Z,11.43
2023-12-09T05:46:19.361Z,12.27
2023-12-09T05:51:23.040Z,10.10
2023-12-09T05:56:26.728Z,12.20
2023-12-09T06:01:30.217Z,11.77
2023-12-09T06:06:33.842Z,13.23
2023-12-09T06:11:37.253Z,13.83
2023-12-09T06:16:40.723Z,11.40
2023-12-09T06:21:44.214Z,13.17
2023-12-09T06:26:47.679Z,13.60
2023-12-09T06:31:51.166Z,11.97
2023-12-09T06:36:54.666Z,14.47
2023-12-09T06:41:58.163Z,12.57
2023-12-09T06:47:01.631Z,17.00
2023-12-09T06:52:05.835Z,24.67
2023-12-09T06:57:09.320Z,16.20
2023-12-09T07:02:12.837Z,23.30
2023-12-09T07:07:21.847Z,19.63
2023-12-09T07:12:27.572Z,17.43
2023-12-09T07:17:31.196Z,13.03
2023-12-09T07:22:34.854Z,14.60
2023-12-09T07:27:38.382Z,14.87
2023-12-09T07:32:42.073Z,15.10
2023-12-09T07:37:47.869Z,17.07
2023-12-09T07:42:51.642Z,15.83
2023-12-09T07:47:56.188Z,16.80
2023-12-09T07:53:00.800Z,18.90
2023-12-09T07:58:04.997Z,15.73
2023-12-09T08:03:08.679Z,15.13
2023-12-09T08:08:12.139Z,14.30
2023-12-09T08:13:15.636Z,14.80
2023-12-09T08:18:19.411Z,12.83
2023-12-09T08:23:23.002Z,13.97
2023-12-09T08:28:28.677Z,14.73
2023-12-09T08:33:32.530Z,17.63
2023-12-09T08:38:36.343Z,13.83
2023-12-09T08:43:39.905Z,14.27
2023-12-09T08:48:43.944Z,18.07
2023-12-09T08:53:47.479Z,15.90
2023-12-09T08:58:51.011Z,17.33
2023-12-09T09:03:54.572Z,16.63
2023-12-09T09:08:58.164Z,14.30
2023-12-09T09:14:01.715Z,15.63
2023-12-09T09:19:06.502Z,15.30
2023-12-09T09:24:10.314Z,17.83
2023-12-09T09:29:13.988Z,13.67
2023-12-09T09:34:18.085Z,19.40
2023-12-09T09:39:21.526Z,15.67
2023-12-09T09:44:33.772Z,13.07
2023-12-09T09:49:39.736Z,12.57
2023-12-09T09:54:45.540Z,12.43
2023-12-09T09:59:49.305Z,13.30
2023-12-09T10:04:53.195Z,13.40
2023-12-09T10:09:56.663Z,13.33
2023-12-09T10:15:02.393Z,12.70
2023-12-09T10:20:07.993Z,12.53
2023-12-09T10:25:20.860Z,13.70
2023-12-09T10:30:25.167Z,13.30
2023-12-09T10:35:29.026Z,12.93
2023-12-09T10:40:33.917Z,11.60
2023-12-09T10:45:37.453Z,11.10
2023-12-09T10:50:41.230Z,11.30
2023-12-09T10:55:44.869Z,13.67
2023-12-09T11:00:50.316Z,14.50
2023-12-09T11:05:56.526Z,15.83
2023-12-09T11:11:05.068Z,13.43
2023-12-09T11:16:20.805Z,11.87
2023-12-09T11:21:27.505Z,14.00
2023-12-09T11:26:36.705Z,13.90
2023-12-09T11:31:41.693Z,12.73
2023-12-09T11:36:47.910Z,16.27
2023-12-09T11:41:52.262Z,15.00
2023-12-09T11:46:56.806Z,13.77
2023-12-09T11:52:00.353Z,13.47
2023-12-09T11:57:04.696Z,13.17
2023-12-09T12:02:08.771Z,15.10
2023-12-09T12:07:12.498Z,13.77
2023-12-09T12:12:15.950Z,12.77
2023-12-09T12:17:19.538Z,14.43
2023-12-09T12:22:23.266Z,13.17
2023-12-09T12:27:27.112Z,13.67
2023-12-09T12:32:38.906Z,13.07
2023-12-09T12:37:42.553Z,15.87
2023-12-09T12:42:46.812Z,13.30
2023-12-09T12:47:50.798Z,16.50
2023-12-09T12:52:56.006Z,15.87
2023-12-09T12:57:59.826Z,13.33
2023-12-09T13:03:06.274Z,16.67
2023-12-09T13:08:09.846Z,13.27
2023-12-09T13:13:15.995Z,17.13
2023-12-09T13:18:22.665Z,16.00
2023-12-09T13:23:29.257Z,14.70
2023-12-09T13:28:32.997Z,14.23
2023-12-09T13:33:36.705Z,15.03
2023-12-09T13:38:40.801Z,13.23
2023-12-09T13:43:44.379Z,14.57
2023-12-09T13:48:47.906Z,16.93
2023-12-09T13:53:51.569Z,13.60
2023-12-09T13:58:55.649Z,14.77
2023-12-09T14:03:59.372Z,15.93
2023-12-09T14:09:03.671Z,16.60
2023-12-09T14:14:07.627Z,18.03
2023-12-09T14:19:11.957Z,21.50
2023-12-09T14:24:17.299Z,17.97
2023-12-09T14:29:20.997Z,18.37
2023-12-09T14:34:27.190Z,20.10
2023-12-09T14:39:30.960Z,21.87
2023-12-09T14:44:34.405Z,17.00
2023-12-09T14:49:38.766Z,18.00
2023-12-09T14:54:43.244Z,17.53
2023-12-09T14:59:46.825Z,19.67
2023-12-09T15:04:50.395Z,19.30
2023-12-09T15:09:54.169Z,15.47
2023-12-09T15:14:58.032Z,14.73
2023-12-09T15:20:01.837Z,16.23
2023-12-09T15:25:06.882Z,16.47
2023-12-09T15:30:11.934Z,18.23
2023-12-09T15:35:16.850Z,16.30
2023-12-09T15:40:20.504Z,15.87
2023-12-09T15:45:23.973Z,16.00
2023-12-09T15:50:27.636Z,17.40
2023-12-09T15:55:32.885Z,16.10
2023-12-09T16:00:36.435Z,18.13
2023-12-09T16:05:40.809Z,16.60
2023-12-09T16:10:44.373Z,16.90
2023-12-09T16:15:48.506Z,20.50
2023-12-09T16:20:52.302Z,19.23
2023-12-09T16:25:55.879Z,20.47
2023-12-09T16:30:59.381Z,19.10
2023-12-09T16:36:03.172Z,15.93
2023-12-09T16:41:07.354Z,16.73
2023-12-09T16:46:10.824Z,16.60
2023-12-09T16:51:14.570Z,16.20
2023-12-09T16:56:19.293Z,16.10
2023-12-09T17:01:23.702Z,19.00
2023-12-09T17:06:27.271Z,22.57
2023-12-09T17:11:30.948Z,21.03
2023-12-09T17:16:34.472Z,20.53
2023-12-09T17:21:38.032Z,22.30
2023-12-09T17:26:41.641Z,21.47
2023-12-09T17:31:46.850Z,26.23
2023-12-09T17:36:51.984Z,19.70
2023-12-09T17:41:58.718Z,16.80
2023-12-09T17:47:02.805Z,14.90
2023-12-09T17:52:06.468Z,27.37
2023-12-09T17:57:10.870Z,22.83
2023-12-09T18:02:14.327Z,21.37
2023-12-09T18:07:18.274Z,21.63
2023-12-09T18:12:22.189Z,23.10
2023-12-09T18:17:25.742Z,17.47
2023-12-09T18:22:29.568Z,17.00
2023-12-09T18:27:33.532Z,19.70
2023-12-09T18:32:39.722Z,16.80
2023-12-09T18:37:46.014Z,18.60
2023-12-09T18:42:52.090Z,18.90
2023-12-09T18:47:56.208Z,16.63
2023-12-09T18:52:59.718Z,14.43
2023-12-09T18:58:04.113Z,16.43
2023-12-09T19:03:07.928Z,14.23
2023-12-09T19:08:11.500Z,13.63
2023-12-09T19:13:14.863Z,13.27
2023-12-09T19:18:19.222Z,14.10
2023-12-09T19:23:23.021Z,14.37
2023-12-09T19:28:27.071Z,13.93
2023-12-09T19:33:30.639Z,12.63
2023-12-09T19:38:34.226Z,13.13
2023-12-09T19:43:37.784Z,11.83
2023-12-09T19:48:42.067Z,13.47
2023-12-09T19:53:48.675Z,13.27
2023-12-09T19:58:52.902Z,14.10
2023-12-09T20:03:56.379Z,13.33
2023-12-09T20:09:00.011Z,15.87
2023-12-09T20:14:03.453Z,12.40
2023-12-09T20:19:08.708Z,13.90
2023-12-09T20:24:12.783Z,11.93
2023-12-09T20:29:16.298Z,14.70
2023-12-09T20:34:19.970Z,11.73
2023-12-09T20:39:24.466Z,13.17
2023-12-09T20:44:28.042Z,11.73
2023-12-09T20:49:31.538Z,13.17
2023-12-09T20:54:35.063Z,12.73
2023-12-09T20:59:39.487Z,12.30
2023-12-09T21:04:46.434Z,13.27
2023-12-09T21:09:52.524Z,15.73
2023-12-09T21:14:56.017Z,15.50
2023-12-09T21:20:01.088Z,13.57
2023-12-09T21:25:05.475Z,15.00
2023-12-09T21:30:09.796Z,14.10
2023-12-09T21:35:13.466Z,16.13
2023-12-09T21:40:17.773Z,15.07
2023-12-09T21:45:21.908Z,15.33
2023-12-09T21:50:26.433Z,15.40
2023-12-09T21:55:32.348Z,13.97
2023-12-09T22:00:36.348Z,16.70
2023-12-09T22:05:40.048Z,14.07
2023-12-09T22:10:43.454Z,14.47
2023-12-09T22:15:47.715Z,14.13
2023-12-09T22:20:51.211Z,15.43
2023-12-09T22:25:54.792Z,11.47
2023-12-09T22:30:59.006Z,12.03
2023-12-09T22:36:02.537Z,11.63
2023-12-09T22:41:06.282Z,14.20
2023-12-09T22:46:10.668Z,12.40
2023-12-09T22:51:21.817Z,13.17
2023-12-09T22:56:28.715Z,13.45
2023-12-09T23:01:34.170Z,9.80
2023-12-09T23:06:38.771Z,11.63
2023-12-09T23:11:42.106Z,11.03
2023-12-09T23:16:46.507Z,11.93
2023-12-09T23:21:50.913Z,11.60
2023-12-09T23:26:55.323Z,10.63
2023-12-09T23:31:58.584Z,10.63
2023-12-09T23:37:01.987Z,11.03
2023-12-09T23:42:05.825Z,11.57
2023-12-09T23:47:09.333Z,11.90
2023-12-09T23:52:12.963Z,11.40
2023-12-09T23:57:16.586Z,12.20
